createdAt,value
2017-03-22T00:00:00.604Z,932.93
2017-03-22T00:00:14.701Z,932.94
2017-03-22T00:00:28.786Z,932.99
2017-03-22T00:00:42.882Z,933.08
2017-03-22T00:00:56.985Z,933.01
2017-03-22T00:01:11.096Z,932.97
2017-03-22T00:01:25.198Z,932.94
2017-03-22T00:01:39.280Z,933.02
2017-03-22T00:01:53.319Z,932.94
2017-03-22T00:02:07.484Z,932.95
2017-03-22T00:02:21.633Z,932.96
2017-03-22T00:02:35.764Z,932.92
2017-03-22T00:02:49.911Z,932.95
2017-03-22T00:03:04.015Z,932.96
2017-03-22T00:03:18.215Z,932.95
2017-03-22T00:03:32.298Z,932.97
2017-03-22T00:03:46.585Z,932.94
2017-03-22T00:04:00.713Z,933
2017-03-22T00:04:14.874Z,932.9
2017-03-22T00:04:28.971Z,932.93
2017-03-22T00:04:43.105Z,932.97
2017-03-22T00:04:57.183Z,932.9
2017-03-22T00:05:11.536Z,932.92
2017-03-22T00:05:25.611Z,932.91
2017-03-22T00:05:39.776Z,932.93
2017-03-22T00:05:53.921Z,932.93
2017-03-22T00:06:07.998Z,932.9
2017-03-22T00:06:22.076Z,932.92
2017-03-22T00:06:36.194Z,932.96
2017-03-22T00:06:50.266Z,932.89
2017-03-22T00:07:04.361Z,932.92
2017-03-22T00:07:18.527Z,932.89
2017-03-22T00:07:32.634Z,932.93
2017-03-22T00:07:46.735Z,932.91
2017-03-22T00:08:00.779Z,932.95
2017-03-22T00:08:14.883Z,932.92
2017-03-22T00:08:28.954Z,932.88
2017-03-22T00:08:43.079Z,932.9
2017-03-22T00:08:57.181Z,932.92
2017-03-22T00:09:11.278Z,932.93
2017-03-22T00:09:25.376Z,932.95
2017-03-22T00:09:39.502Z,932.89
2017-03-22T00:09:53.599Z,932.9
2017-03-22T00:10:07.937Z,932.94
2017-03-22T00:10:22.006Z,932.9
2017-03-22T00:10:36.695Z,932.91
2017-03-22T00:10:50.792Z,932.91
2017-03-22T00:11:04.845Z,932.95
2017-03-22T00:11:18.947Z,932.95
2017-03-22T00:11:33.035Z,932.95
2017-03-22T00:11:47.186Z,932.9
2017-03-22T00:12:01.306Z,932.94
2017-03-22T00:12:15.422Z,932.93
2017-03-22T00:12:29.470Z,932.96
2017-03-22T00:12:43.533Z,932.99
2017-03-22T00:12:57.643Z,933.09
2017-03-22T00:13:11.746Z,932.99
2017-03-22T00:13:25.752Z,933.05
2017-03-22T00:13:39.856Z,933
2017-03-22T00:13:53.922Z,932.93
2017-03-22T00:14:08.014Z,933.02
2017-03-22T00:14:22.116Z,932.98
2017-03-22T00:14:36.228Z,932.99
2017-03-22T00:14:50.342Z,932.93
2017-03-22T00:15:04.431Z,932.93
2017-03-22T00:15:18.545Z,932.97
2017-03-22T00:15:32.682Z,933
2017-03-22T00:15:46.821Z,932.96
2017-03-22T00:16:00.961Z,932.95
2017-03-22T00:16:14.992Z,932.95
2017-03-22T00:16:29.137Z,932.97
2017-03-22T00:16:43.228Z,933.03
2017-03-22T00:16:57.315Z,932.99
2017-03-22T00:17:11.413Z,932.97
2017-03-22T00:17:25.514Z,933.02
2017-03-22T00:17:39.564Z,932.92
2017-03-22T00:17:53.664Z,932.94
2017-03-22T00:18:07.792Z,932.97
2017-03-22T00:18:21.858Z,932.92
2017-03-22T00:18:35.919Z,932.98
2017-03-22T00:18:50.097Z,932.95
2017-03-22T00:19:04.156Z,932.9
2017-03-22T00:19:18.293Z,933
2017-03-22T00:19:32.424Z,933.17
2017-03-22T00:19:46.534Z,933
2017-03-22T00:20:00.685Z,933
2017-03-22T00:20:14.785Z,933.03
2017-03-22T00:20:28.883Z,933.05
2017-03-22T00:20:42.985Z,933
2017-03-22T00:20:57.320Z,932.94
2017-03-22T00:21:11.423Z,932.97
2017-03-22T00:21:25.576Z,932.97
2017-03-22T00:21:39.629Z,932.95
2017-03-22T00:21:53.707Z,933
2017-03-22T00:22:07.775Z,932.98
2017-03-22T00:22:21.862Z,933
2017-03-22T00:22:35.947Z,932.98
2017-03-22T00:22:50.030Z,932.95
2017-03-22T00:23:04.121Z,932.95
2017-03-22T00:23:18.213Z,932.95
2017-03-22T00:23:32.332Z,932.92
2017-03-22T00:23:46.392Z,932.94
2017-03-22T00:24:00.466Z,932.94
2017-03-22T00:24:14.599Z,932.95
2017-03-22T00:24:28.659Z,932.98
2017-03-22T00:24:42.822Z,932.95
2017-03-22T00:24:56.915Z,932.95
2017-03-22T00:25:11.501Z,932.94
2017-03-22T00:25:25.625Z,932.96
2017-03-22T00:25:39.744Z,933
2017-03-22T00:25:53.864Z,933.03
2017-03-22T00:26:07.956Z,933.01
2017-03-22T00:26:22.058Z,933.03
2017-03-22T00:26:36.171Z,933.02
2017-03-22T00:26:50.223Z,933
2017-03-22T00:27:04.342Z,932.99
2017-03-22T00:27:18.441Z,932.98
2017-03-22T00:27:32.617Z,933
2017-03-22T00:27:46.692Z,933.01
2017-03-22T00:28:00.739Z,933.02
2017-03-22T00:28:14.818Z,933.03
2017-03-22T00:28:28.929Z,933.04
2017-03-22T00:28:43.066Z,933.06
2017-03-22T00:28:57.147Z,933.05
2017-03-22T00:29:11.222Z,933.05
2017-03-22T00:29:25.319Z,933.09
2017-03-22T00:29:39.440Z,933.11
2017-03-22T00:29:53.705Z,933.1
2017-03-22T00:30:07.800Z,933.04
2017-03-22T00:30:21.894Z,933.07
2017-03-22T00:30:35.965Z,933.08
2017-03-22T00:30:50.066Z,933.05
2017-03-22T00:31:04.151Z,933.08
2017-03-22T00:31:18.244Z,933.06
2017-03-22T00:31:32.379Z,933.05
2017-03-22T00:31:46.481Z,933.07
2017-03-22T00:32:00.539Z,933.06
2017-03-22T00:32:14.664Z,933.05
2017-03-22T00:32:28.697Z,933.07
2017-03-22T00:32:42.850Z,933.05
2017-03-22T00:32:56.997Z,933.06
2017-03-22T00:33:11.043Z,933.08
2017-03-22T00:33:25.165Z,933.08
2017-03-22T00:33:39.228Z,933.04
2017-03-22T00:33:53.333Z,933.01
2017-03-22T00:34:07.441Z,933.02
2017-03-22T00:34:21.530Z,933.04
2017-03-22T00:34:35.573Z,933
2017-03-22T00:34:49.707Z,933.03
2017-03-22T00:35:03.820Z,933.04
2017-03-22T00:35:17.875Z,933.01
2017-03-22T00:35:31.920Z,933.06
2017-03-22T00:35:46.009Z,933.07
2017-03-22T00:36:00.336Z,933.06
2017-03-22T00:36:14.438Z,933.04
2017-03-22T00:36:28.541Z,933.08
2017-03-22T00:36:42.614Z,933.04
2017-03-22T00:36:56.692Z,933.02
2017-03-22T00:37:10.845Z,933.05
2017-03-22T00:37:24.939Z,933.04
2017-03-22T00:37:38.996Z,933.05
2017-03-22T00:37:53.125Z,933.02
2017-03-22T00:38:07.203Z,933.04
2017-03-22T00:38:21.299Z,932.99
2017-03-22T00:38:35.393Z,933
2017-03-22T00:38:49.496Z,933.05
2017-03-22T00:39:03.589Z,933.03
2017-03-22T00:39:17.700Z,933.08
2017-03-22T00:39:31.836Z,933.04
2017-03-22T00:39:45.953Z,933.03
2017-03-22T00:40:00.047Z,933.04
2017-03-22T00:40:14.332Z,933.04
2017-03-22T00:40:28.436Z,933.04
2017-03-22T00:40:42.481Z,933.06
2017-03-22T00:40:56.630Z,933.08
2017-03-22T00:41:10.807Z,932.98
2017-03-22T00:41:24.915Z,933.02
2017-03-22T00:41:39.033Z,933.05
2017-03-22T00:41:53.122Z,933.07
2017-03-22T00:42:07.307Z,933.09
2017-03-22T00:42:21.479Z,933.04
2017-03-22T00:42:35.571Z,933.01
2017-03-22T00:42:49.669Z,933.01
2017-03-22T00:43:03.744Z,933
2017-03-22T00:43:17.847Z,933.06
2017-03-22T00:43:31.983Z,933.05
2017-03-22T00:43:46.150Z,933.03
2017-03-22T00:44:00.263Z,933.03
2017-03-22T00:44:14.410Z,933.02
2017-03-22T00:44:28.492Z,933.1
2017-03-22T00:44:42.711Z,933.1
2017-03-22T00:44:56.781Z,933.05
2017-03-22T00:45:10.939Z,933.06
2017-03-22T00:45:25.060Z,933.1
2017-03-22T00:45:39.158Z,933.13
2017-03-22T00:45:53.327Z,933.12
2017-03-22T00:46:07.451Z,933.06
2017-03-22T00:46:21.490Z,933.05
2017-03-22T00:46:35.570Z,933.06
2017-03-22T00:46:49.677Z,933.07
2017-03-22T00:47:03.771Z,933.03
2017-03-22T00:47:17.926Z,933.06
2017-03-22T00:47:32.012Z,933.07
2017-03-22T00:47:46.141Z,933.1
2017-03-22T00:48:00.241Z,933.06
2017-03-22T00:48:14.331Z,933.04
2017-03-22T00:48:28.483Z,933.07
2017-03-22T00:48:42.558Z,933.03
2017-03-22T00:48:56.677Z,933.05
2017-03-22T00:49:10.752Z,933.02
2017-03-22T00:49:24.822Z,933.05
2017-03-22T00:49:38.945Z,933.05
2017-03-22T00:49:53.051Z,933.06
2017-03-22T00:50:07.191Z,933.05
2017-03-22T00:50:21.284Z,933.08
2017-03-22T00:50:35.563Z,933
2017-03-22T00:50:49.634Z,933.08
2017-03-22T00:51:03.721Z,933.17
2017-03-22T00:51:17.877Z,933.05
2017-03-22T00:51:31.948Z,933.09
2017-03-22T00:51:46.069Z,933.08
2017-03-22T00:52:00.211Z,933.15
2017-03-22T00:52:14.339Z,933.05
2017-03-22T00:52:28.484Z,933.09
2017-03-22T00:52:42.633Z,933.06
2017-03-22T00:52:56.761Z,933.07
2017-03-22T00:53:10.880Z,933.05
2017-03-22T00:53:24.988Z,933.07
2017-03-22T00:53:39.149Z,933.04
2017-03-22T00:53:53.264Z,933.09
2017-03-22T00:54:07.338Z,933.02
2017-03-22T00:54:21.531Z,933.06
2017-03-22T00:54:35.709Z,933.05
2017-03-22T00:54:49.902Z,933.03
2017-03-22T00:55:04.003Z,933.04
2017-03-22T00:55:18.343Z,933.08
2017-03-22T00:55:32.431Z,933.08
2017-03-22T00:55:46.695Z,933.07
2017-03-22T00:56:00.814Z,933.06
2017-03-22T00:56:14.874Z,933.09
2017-03-22T00:56:28.978Z,933.09
2017-03-22T00:56:43.271Z,933.06
2017-03-22T00:56:57.331Z,933.03
2017-03-22T00:57:11.628Z,933.04
2017-03-22T00:57:25.711Z,933.08
2017-03-22T00:57:39.821Z,933.09
2017-03-22T00:57:53.981Z,933.09
2017-03-22T00:58:08.127Z,933.06
2017-03-22T00:58:22.268Z,933.06
2017-03-22T00:58:36.382Z,933.04
2017-03-22T00:58:50.424Z,933.07
2017-03-22T00:59:04.515Z,933.06
2017-03-22T00:59:18.625Z,933.1
2017-03-22T00:59:32.719Z,933.05
2017-03-22T00:59:46.851Z,933.05
2017-03-22T01:00:00.945Z,933.06
2017-03-22T01:00:14.995Z,933.08
2017-03-22T01:00:29.098Z,933.06
2017-03-22T01:00:43.227Z,933.07
2017-03-22T01:00:57.354Z,933.05
2017-03-22T01:01:11.442Z,933.06
2017-03-22T01:01:25.488Z,933.06
2017-03-22T01:01:39.609Z,933.03
2017-03-22T01:01:53.762Z,933.02
2017-03-22T01:02:07.903Z,933.05
2017-03-22T01:02:22.019Z,933.04
2017-03-22T01:02:36.191Z,933.08
2017-03-22T01:02:50.304Z,933.06
2017-03-22T01:03:04.454Z,933.06
2017-03-22T01:03:18.556Z,933.08
2017-03-22T01:03:32.721Z,933.07
2017-03-22T01:03:46.852Z,933.05
2017-03-22T01:04:00.895Z,933.1
2017-03-22T01:04:14.969Z,933.1
2017-03-22T01:04:29.071Z,933.11
2017-03-22T01:04:43.201Z,933.12
2017-03-22T01:04:57.273Z,933.08
2017-03-22T01:05:11.347Z,933.04
2017-03-22T01:05:25.421Z,933.1
2017-03-22T01:05:39.541Z,933.15
2017-03-22T01:05:53.613Z,933.05
2017-03-22T01:06:07.650Z,933.08
2017-03-22T01:06:21.720Z,933.01
2017-03-22T01:06:35.789Z,932.99
2017-03-22T01:06:49.836Z,933.03
2017-03-22T01:07:03.938Z,933.03
2017-03-22T01:07:18.105Z,932.99
2017-03-22T01:07:32.212Z,933.03
2017-03-22T01:07:46.342Z,933
2017-03-22T01:08:00.426Z,932.97
2017-03-22T01:08:14.495Z,932.99
2017-03-22T01:08:28.583Z,933.08
2017-03-22T01:08:42.739Z,933.08
2017-03-22T01:08:56.848Z,932.99
2017-03-22T01:09:11.004Z,932.97
2017-03-22T01:09:25.104Z,932.96
2017-03-22T01:09:39.210Z,932.98
2017-03-22T01:09:53.350Z,932.98
2017-03-22T01:10:07.433Z,932.96
2017-03-22T01:10:21.539Z,932.96
2017-03-22T01:10:35.853Z,932.95
2017-03-22T01:10:49.924Z,933.01
2017-03-22T01:11:04.010Z,933.01
2017-03-22T01:11:18.145Z,932.96
2017-03-22T01:11:32.286Z,933
2017-03-22T01:11:46.380Z,932.97
2017-03-22T01:12:00.524Z,932.96
2017-03-22T01:12:14.574Z,932.93
2017-03-22T01:12:28.727Z,932.95
2017-03-22T01:12:42.835Z,933
2017-03-22T01:12:56.923Z,932.99
2017-03-22T01:13:11.081Z,932.96
2017-03-22T01:13:25.189Z,932.92
2017-03-22T01:13:39.277Z,932.9
2017-03-22T01:13:53.340Z,932.99
2017-03-22T01:14:07.416Z,933.03
2017-03-22T01:14:21.499Z,932.89
2017-03-22T01:14:35.567Z,932.92
2017-03-22T01:14:49.629Z,932.96
2017-03-22T01:15:03.738Z,932.89
2017-03-22T01:15:17.849Z,932.9
2017-03-22T01:15:31.920Z,932.94
2017-03-22T01:15:46.025Z,932.91
2017-03-22T01:16:00.049Z,932.92
2017-03-22T01:16:14.059Z,932.92
2017-03-22T01:16:28.147Z,932.87
2017-03-22T01:16:42.312Z,932.89
2017-03-22T01:16:56.426Z,932.88
2017-03-22T01:17:10.690Z,932.9
2017-03-22T01:17:25.026Z,932.9
2017-03-22T01:17:39.142Z,932.88
2017-03-22T01:17:53.193Z,932.9
2017-03-22T01:18:07.293Z,932.88
2017-03-22T01:18:21.412Z,932.88
2017-03-22T01:18:35.547Z,932.86
2017-03-22T01:18:49.603Z,932.85
2017-03-22T01:19:03.733Z,932.86
2017-03-22T01:19:17.893Z,932.84
2017-03-22T01:19:31.938Z,932.85
2017-03-22T01:19:46.036Z,932.8
2017-03-22T01:20:00.123Z,932.81
2017-03-22T01:20:14.161Z,932.82
2017-03-22T01:20:28.271Z,932.8
2017-03-22T01:20:42.342Z,932.84
2017-03-22T01:20:56.458Z,932.82
2017-03-22T01:21:10.600Z,932.82
2017-03-22T01:21:24.723Z,932.87
2017-03-22T01:21:38.870Z,932.86
2017-03-22T01:21:52.975Z,932.89
2017-03-22T01:22:07.066Z,932.85
2017-03-22T01:22:21.203Z,932.88
2017-03-22T01:22:35.294Z,932.85
2017-03-22T01:22:49.375Z,932.86
2017-03-22T01:23:03.518Z,932.87
2017-03-22T01:23:17.588Z,932.89
2017-03-22T01:23:31.676Z,932.83
2017-03-22T01:23:45.781Z,932.83
2017-03-22T01:23:59.909Z,932.85
2017-03-22T01:24:14.041Z,932.82
2017-03-22T01:24:28.149Z,932.82
2017-03-22T01:24:42.239Z,932.85
2017-03-22T01:24:56.367Z,932.79
2017-03-22T01:25:10.474Z,932.8
2017-03-22T01:25:24.582Z,932.84
2017-03-22T01:25:38.878Z,932.77
2017-03-22T01:25:52.937Z,932.81
2017-03-22T01:26:06.986Z,932.78
2017-03-22T01:26:21.058Z,932.79
2017-03-22T01:26:35.164Z,932.78
2017-03-22T01:26:49.285Z,932.79
2017-03-22T01:27:03.410Z,932.77
2017-03-22T01:27:17.502Z,932.74
2017-03-22T01:27:31.613Z,932.75
2017-03-22T01:27:45.709Z,932.74
2017-03-22T01:27:59.852Z,932.75
2017-03-22T01:28:14.039Z,932.74
2017-03-22T01:28:28.093Z,932.76
2017-03-22T01:28:42.261Z,932.75
2017-03-22T01:28:56.361Z,932.74
2017-03-22T01:29:10.467Z,932.72
2017-03-22T01:29:24.587Z,932.74
2017-03-22T01:29:38.740Z,932.75
2017-03-22T01:29:52.839Z,932.71
2017-03-22T01:30:06.955Z,932.74
2017-03-22T01:30:21.089Z,932.75
2017-03-22T01:30:35.246Z,932.73
2017-03-22T01:30:49.388Z,932.7
2017-03-22T01:31:03.539Z,932.72
2017-03-22T01:31:17.642Z,932.69
2017-03-22T01:31:31.768Z,932.68
2017-03-22T01:31:45.962Z,932.65
2017-03-22T01:32:00.014Z,932.71
2017-03-22T01:32:14.096Z,932.67
2017-03-22T01:32:28.151Z,932.65
2017-03-22T01:32:42.229Z,932.7
2017-03-22T01:32:56.327Z,932.66
2017-03-22T01:33:10.452Z,932.68
2017-03-22T01:33:24.501Z,932.66
2017-03-22T01:33:38.540Z,932.69
2017-03-22T01:33:52.686Z,932.71
2017-03-22T01:34:06.773Z,932.66
2017-03-22T01:34:20.859Z,932.66
2017-03-22T01:34:35.001Z,932.64
2017-03-22T01:34:49.133Z,932.62
2017-03-22T01:35:03.228Z,932.64
2017-03-22T01:35:17.327Z,932.64
2017-03-22T01:35:31.431Z,932.66
2017-03-22T01:35:45.543Z,932.64
2017-03-22T01:35:59.645Z,932.66
2017-03-22T01:36:13.748Z,932.67
2017-03-22T01:36:27.901Z,932.65
2017-03-22T01:36:41.988Z,932.65
2017-03-22T01:36:56.157Z,932.66
2017-03-22T01:37:10.273Z,932.67
2017-03-22T01:37:24.387Z,932.67
2017-03-22T01:37:38.546Z,932.69
2017-03-22T01:37:52.649Z,932.69
2017-03-22T01:38:06.774Z,932.7
2017-03-22T01:38:21.031Z,932.67
2017-03-22T01:38:35.154Z,932.68
2017-03-22T01:38:49.254Z,932.65
2017-03-22T01:39:03.419Z,932.7
2017-03-22T01:39:17.471Z,932.71
2017-03-22T01:39:31.559Z,932.72
2017-03-22T01:39:45.658Z,932.76
2017-03-22T01:39:59.756Z,932.74
2017-03-22T01:40:13.909Z,932.75
2017-03-22T01:40:27.943Z,932.73
2017-03-22T01:40:42.273Z,932.76
2017-03-22T01:40:56.379Z,932.75
2017-03-22T01:41:10.477Z,932.75
2017-03-22T01:41:24.560Z,932.73
2017-03-22T01:41:38.680Z,932.81
2017-03-22T01:41:52.788Z,932.72
2017-03-22T01:42:06.873Z,932.74
2017-03-22T01:42:20.998Z,932.74
2017-03-22T01:42:35.048Z,932.79
2017-03-22T01:42:49.128Z,932.77
2017-03-22T01:43:03.204Z,932.82
2017-03-22T01:43:17.326Z,932.72
2017-03-22T01:43:31.485Z,932.8
2017-03-22T01:43:45.833Z,932.78
2017-03-22T01:43:59.970Z,932.77
2017-03-22T01:44:14.043Z,932.79
2017-03-22T01:44:28.165Z,932.77
2017-03-22T01:44:42.235Z,932.75
2017-03-22T01:44:56.378Z,932.75
2017-03-22T01:45:10.503Z,932.79
2017-03-22T01:45:24.597Z,932.76
2017-03-22T01:45:38.732Z,932.78
2017-03-22T01:45:52.848Z,932.7
2017-03-22T01:46:06.919Z,932.74
2017-03-22T01:46:20.955Z,932.74
2017-03-22T01:46:35.054Z,932.76
2017-03-22T01:46:49.125Z,932.73
2017-03-22T01:47:03.233Z,932.8
2017-03-22T01:47:17.331Z,932.79
2017-03-22T01:47:31.479Z,932.75
2017-03-22T01:47:45.552Z,932.8
2017-03-22T01:47:59.661Z,932.74
2017-03-22T01:48:13.722Z,932.76
2017-03-22T01:48:27.874Z,932.78
2017-03-22T01:48:42.004Z,932.78
2017-03-22T01:48:56.159Z,932.75
2017-03-22T01:49:10.296Z,932.77
2017-03-22T01:49:24.352Z,932.79
2017-03-22T01:49:38.476Z,932.79
2017-03-22T01:49:52.554Z,932.75
2017-03-22T01:50:06.626Z,932.78
2017-03-22T01:50:20.733Z,932.81
2017-03-22T01:50:34.784Z,932.83
2017-03-22T01:50:48.947Z,932.81
2017-03-22T01:51:03.046Z,932.76
2017-03-22T01:51:17.153Z,932.8
2017-03-22T01:51:31.228Z,932.88
2017-03-22T01:51:45.359Z,932.84
2017-03-22T01:51:59.488Z,932.81
2017-03-22T01:52:13.611Z,932.78
2017-03-22T01:52:27.709Z,932.75
2017-03-22T01:52:41.872Z,932.78
2017-03-22T01:52:56.020Z,932.78
2017-03-22T01:53:10.155Z,932.78
2017-03-22T01:53:24.276Z,932.78
2017-03-22T01:53:38.410Z,932.81
2017-03-22T01:53:52.535Z,932.79
2017-03-22T01:54:06.695Z,932.77
2017-03-22T01:54:20.821Z,932.77
2017-03-22T01:54:34.953Z,932.83
2017-03-22T01:54:49.083Z,932.78
2017-03-22T01:55:03.132Z,932.79
2017-03-22T01:55:17.163Z,932.79
2017-03-22T01:55:31.224Z,932.79
2017-03-22T01:55:45.463Z,932.78
2017-03-22T01:55:59.567Z,932.8
2017-03-22T01:56:13.639Z,932.78
2017-03-22T01:56:27.754Z,932.77
2017-03-22T01:56:41.802Z,932.8
2017-03-22T01:56:55.923Z,932.77
2017-03-22T01:57:10.036Z,932.78
2017-03-22T01:57:24.112Z,932.79
2017-03-22T01:57:38.234Z,932.78
2017-03-22T01:57:52.393Z,932.79
2017-03-22T01:58:06.551Z,932.8
2017-03-22T01:58:20.622Z,932.79
2017-03-22T01:58:34.705Z,932.8
2017-03-22T01:58:48.791Z,932.82
2017-03-22T01:59:02.920Z,932.81
2017-03-22T01:59:17.060Z,932.81
2017-03-22T01:59:31.167Z,932.77
2017-03-22T01:59:45.267Z,932.79
2017-03-22T01:59:59.440Z,932.82
2017-03-22T02:00:13.535Z,932.79
2017-03-22T02:00:27.609Z,932.81
2017-03-22T02:00:42.194Z,932.84
2017-03-22T02:00:56.273Z,932.8
2017-03-22T02:01:10.350Z,932.78
2017-03-22T02:01:24.504Z,932.8
2017-03-22T02:01:38.626Z,932.78
2017-03-22T02:01:52.704Z,932.8
2017-03-22T02:02:06.863Z,932.84
2017-03-22T02:02:21.050Z,932.79
2017-03-22T02:02:35.180Z,932.85
2017-03-22T02:02:49.266Z,932.8
2017-03-22T02:03:03.389Z,932.8
2017-03-22T02:03:17.474Z,932.8
2017-03-22T02:03:31.567Z,932.81
2017-03-22T02:03:45.679Z,932.76
2017-03-22T02:03:59.791Z,932.76
2017-03-22T02:04:13.837Z,932.75
2017-03-22T02:04:27.947Z,932.75
2017-03-22T02:04:42.059Z,932.76
2017-03-22T02:04:56.141Z,932.76
2017-03-22T02:05:10.200Z,932.75
2017-03-22T02:05:24.298Z,932.73
2017-03-22T02:05:38.385Z,932.77
2017-03-22T02:05:52.446Z,932.77
2017-03-22T02:06:06.505Z,932.73
2017-03-22T02:06:20.616Z,932.77
2017-03-22T02:06:34.751Z,932.75
2017-03-22T02:06:48.853Z,932.7
2017-03-22T02:07:02.979Z,932.75
2017-03-22T02:07:17.149Z,932.75
2017-03-22T02:07:31.299Z,932.82
2017-03-22T02:07:45.372Z,932.81
2017-03-22T02:07:59.574Z,932.75
2017-03-22T02:08:13.628Z,932.76
2017-03-22T02:08:27.702Z,932.71
2017-03-22T02:08:41.833Z,932.72
2017-03-22T02:08:55.924Z,932.79
2017-03-22T02:09:10.019Z,932.77
2017-03-22T02:09:24.092Z,932.77
2017-03-22T02:09:38.200Z,932.72
2017-03-22T02:09:52.330Z,932.75
2017-03-22T02:10:06.444Z,932.75
2017-03-22T02:10:20.523Z,932.78
2017-03-22T02:10:34.612Z,932.81
2017-03-22T02:10:48.802Z,932.79
2017-03-22T02:11:02.941Z,932.73
2017-03-22T02:11:17.093Z,932.8
2017-03-22T02:11:31.259Z,932.77
2017-03-22T02:11:45.311Z,932.74
2017-03-22T02:11:59.430Z,932.73
2017-03-22T02:12:13.558Z,932.72
2017-03-22T02:12:27.702Z,932.79
2017-03-22T02:12:41.811Z,932.7
2017-03-22T02:12:55.957Z,932.81
2017-03-22T02:13:10.070Z,932.78
2017-03-22T02:13:24.164Z,932.73
2017-03-22T02:13:38.241Z,932.75
2017-03-22T02:13:52.317Z,932.73
2017-03-22T02:14:06.427Z,932.78
2017-03-22T02:14:20.444Z,932.8
2017-03-22T02:14:34.503Z,932.71
2017-03-22T02:14:48.581Z,932.73
2017-03-22T02:15:02.681Z,932.79
2017-03-22T02:15:16.797Z,932.77
2017-03-22T02:15:30.938Z,932.72
2017-03-22T02:15:45.050Z,932.74
2017-03-22T02:15:59.216Z,932.77
2017-03-22T02:16:13.321Z,932.78
2017-03-22T02:16:27.446Z,932.78
2017-03-22T02:16:41.583Z,932.86
2017-03-22T02:16:55.646Z,932.8
2017-03-22T02:17:09.712Z,932.76
2017-03-22T02:17:23.851Z,932.81
2017-03-22T02:17:37.967Z,932.82
2017-03-22T02:17:52.074Z,932.81
2017-03-22T02:18:06.172Z,932.81
2017-03-22T02:18:20.266Z,932.8
2017-03-22T02:18:34.377Z,932.77
2017-03-22T02:18:48.537Z,932.9
2017-03-22T02:19:02.663Z,932.84
2017-03-22T02:19:16.981Z,932.82
2017-03-22T02:19:31.083Z,932.83
2017-03-22T02:19:45.149Z,932.84
2017-03-22T02:19:59.225Z,932.81
2017-03-22T02:20:13.345Z,932.85
2017-03-22T02:20:27.443Z,932.81
2017-03-22T02:20:41.489Z,932.88
2017-03-22T02:20:55.617Z,932.85
2017-03-22T02:21:09.694Z,932.87
2017-03-22T02:21:23.774Z,932.88
2017-03-22T02:21:37.885Z,932.88
2017-03-22T02:21:51.973Z,932.92
2017-03-22T02:22:06.069Z,932.89
2017-03-22T02:22:20.243Z,932.88
2017-03-22T02:22:34.347Z,932.89
2017-03-22T02:22:48.445Z,932.89
2017-03-22T02:23:02.561Z,932.92
2017-03-22T02:23:16.640Z,932.89
2017-03-22T02:23:30.734Z,932.9
2017-03-22T02:23:44.858Z,932.92
2017-03-22T02:23:58.947Z,932.89
2017-03-22T02:24:13.084Z,932.89
2017-03-22T02:24:27.168Z,932.88
2017-03-22T02:24:41.302Z,932.86
2017-03-22T02:24:55.396Z,932.88
2017-03-22T02:25:09.483Z,932.91
2017-03-22T02:25:23.569Z,932.92
2017-03-22T02:25:37.696Z,932.9
2017-03-22T02:25:51.795Z,932.96
2017-03-22T02:26:06.099Z,932.95
2017-03-22T02:26:20.136Z,932.9
2017-03-22T02:26:34.205Z,932.89
2017-03-22T02:26:48.292Z,932.91
2017-03-22T02:27:02.411Z,932.95
2017-03-22T02:27:16.565Z,932.94
2017-03-22T02:27:30.723Z,932.9
2017-03-22T02:27:44.859Z,932.91
2017-03-22T02:27:58.957Z,932.91
2017-03-22T02:28:13.062Z,932.9
2017-03-22T02:28:27.216Z,932.89
2017-03-22T02:28:41.339Z,932.97
2017-03-22T02:28:55.420Z,932.91
2017-03-22T02:29:09.523Z,932.94
2017-03-22T02:29:23.659Z,932.91
2017-03-22T02:29:37.805Z,932.91
2017-03-22T02:29:51.933Z,932.91
2017-03-22T02:30:06.042Z,932.9
2017-03-22T02:30:20.105Z,932.93
2017-03-22T02:30:34.216Z,932.96
2017-03-22T02:30:48.300Z,932.88
2017-03-22T02:31:02.386Z,932.9
2017-03-22T02:31:16.490Z,932.93
2017-03-22T02:31:30.596Z,932.93
2017-03-22T02:31:44.723Z,932.93
2017-03-22T02:31:58.812Z,932.91
2017-03-22T02:32:12.917Z,932.92
2017-03-22T02:32:27.016Z,932.95
2017-03-22T02:32:41.140Z,932.89
2017-03-22T02:32:55.249Z,932.93
2017-03-22T02:33:09.365Z,932.91
2017-03-22T02:33:23.456Z,932.9
2017-03-22T02:33:37.624Z,932.92
2017-03-22T02:33:51.726Z,932.96
2017-03-22T02:34:05.802Z,932.93
2017-03-22T02:34:19.925Z,932.94
2017-03-22T02:34:34.052Z,932.93
2017-03-22T02:34:48.153Z,932.93
2017-03-22T02:35:02.223Z,932.92
2017-03-22T02:35:16.318Z,932.93
2017-03-22T02:35:30.438Z,932.93
2017-03-22T02:35:44.552Z,932.98
2017-03-22T02:35:58.699Z,932.92
2017-03-22T02:36:12.761Z,932.95
2017-03-22T02:36:26.882Z,932.97
2017-03-22T02:36:40.990Z,932.98
2017-03-22T02:36:55.037Z,932.94
2017-03-22T02:37:09.181Z,932.91
2017-03-22T02:37:23.239Z,932.93
2017-03-22T02:37:37.306Z,932.93
2017-03-22T02:37:51.413Z,932.92
2017-03-22T02:38:05.476Z,932.92
2017-03-22T02:38:19.521Z,932.91
2017-03-22T02:38:33.632Z,932.9
2017-03-22T02:38:47.718Z,932.94
2017-03-22T02:39:01.849Z,932.95
2017-03-22T02:39:15.927Z,932.93
2017-03-22T02:39:30.086Z,932.94
2017-03-22T02:39:44.159Z,932.93
2017-03-22T02:39:58.239Z,932.98
2017-03-22T02:40:12.325Z,932.97
2017-03-22T02:40:26.378Z,932.94
2017-03-22T02:40:40.518Z,932.95
2017-03-22T02:40:54.605Z,932.94
2017-03-22T02:41:08.976Z,932.95
2017-03-22T02:41:23.111Z,932.95
2017-03-22T02:41:37.279Z,932.92
2017-03-22T02:41:51.377Z,932.94
2017-03-22T02:42:05.507Z,932.95
2017-03-22T02:42:19.565Z,932.95
2017-03-22T02:42:33.704Z,932.96
2017-03-22T02:42:47.809Z,932.94
2017-03-22T02:43:01.928Z,932.92
2017-03-22T02:43:16.029Z,932.92
2017-03-22T02:43:30.187Z,932.96
2017-03-22T02:43:44.302Z,932.91
2017-03-22T02:43:58.398Z,932.92
2017-03-22T02:44:12.550Z,932.94
2017-03-22T02:44:26.634Z,932.93
2017-03-22T02:44:40.760Z,932.93
2017-03-22T02:44:54.824Z,932.91
2017-03-22T02:45:08.901Z,932.93
2017-03-22T02:45:22.978Z,932.9
2017-03-22T02:45:37.054Z,932.91
2017-03-22T02:45:51.184Z,932.92
2017-03-22T02:46:05.228Z,932.94
2017-03-22T02:46:19.368Z,932.9
2017-03-22T02:46:33.449Z,932.91
2017-03-22T02:46:47.561Z,932.91
2017-03-22T02:47:01.648Z,932.92
2017-03-22T02:47:15.837Z,932.97
2017-03-22T02:47:30.014Z,932.94
2017-03-22T02:47:44.110Z,932.91
2017-03-22T02:47:58.154Z,932.92
2017-03-22T02:48:12.263Z,932.92
2017-03-22T02:48:26.372Z,932.9
2017-03-22T02:48:40.454Z,932.89
2017-03-22T02:48:54.609Z,932.88
2017-03-22T02:49:08.737Z,932.9
2017-03-22T02:49:22.857Z,932.94
2017-03-22T02:49:36.947Z,932.88
2017-03-22T02:49:51.045Z,932.91
2017-03-22T02:50:05.130Z,932.92
2017-03-22T02:50:19.169Z,932.91
2017-03-22T02:50:33.275Z,932.91
2017-03-22T02:50:47.398Z,932.93
2017-03-22T02:51:01.532Z,932.93
2017-03-22T02:51:15.626Z,932.92
2017-03-22T02:51:29.772Z,932.95
2017-03-22T02:51:43.861Z,932.93
2017-03-22T02:51:57.941Z,932.93
2017-03-22T02:52:12.028Z,932.93
2017-03-22T02:52:26.115Z,932.96
2017-03-22T02:52:40.280Z,932.94
2017-03-22T02:52:54.347Z,932.92
2017-03-22T02:53:08.464Z,932.94
2017-03-22T02:53:22.588Z,932.94
2017-03-22T02:53:36.730Z,932.93
2017-03-22T02:53:50.810Z,932.93
2017-03-22T02:54:04.923Z,932.96
2017-03-22T02:54:19.019Z,932.93
2017-03-22T02:54:33.080Z,932.9
2017-03-22T02:54:47.202Z,932.9
2017-03-22T02:55:01.309Z,932.94
2017-03-22T02:55:15.402Z,932.93
2017-03-22T02:55:29.446Z,932.92
2017-03-22T02:55:43.579Z,932.96
2017-03-22T02:55:57.613Z,932.94
2017-03-22T02:56:11.972Z,932.96
2017-03-22T02:56:26.067Z,932.98
2017-03-22T02:56:40.166Z,932.98
2017-03-22T02:56:54.277Z,933.01